Strona główna
METAR-TAF:

METAR-TAF

Lotnisko :

Carlsbad, Nowy Meksyk, Stany Zjednoczone

Szerokość geograficzna: 32-20-15N, Długość geograficzna: 104-15-48W, wysokość: 1004 m

Aktualna obserwacja pogody

Raport powstał 36 minut temu, godzina 09:53 UTC
Wiatr 3 kt od południowo-południowy wschód
Temperatura 18°C
Wilgotność 68%
Ciśnienie 1017 hPa
Widzialność: 16.1 km
bezchmurnie

METAR: KCNM 190953Z AUTO 15003KT 10SM CLR 18/12 A3003 RMK AO2 SLP114 T01830122

czas: 04:29 (10:29 UTC)

Prognoza

Raport powstał 4 godziny i 57 minut temu, godzina 05:32 UTC
Prognoza ważna od 19 godzina 06 UTC do 20 godzina 06 UTC
Wiatr 6 kt od południe
Widzialność: 10 km
Mało chmury na wysokości 10000 ft

TAF: KCNM 190532Z 1906/2006 17006KT P6SM FEW100

Obserwacja i prognoza pogody dla ponad 4000 lotnisk (raport METAR i TAF).

Dostępne stacje oznaczono żółtymi i czerwonymi punktami na mapie.

Najedź kursorem aby zobaczyć nazwę stacji.

Kliknij aby zobaczyć obserwacje i prognozy pogody.

Aby zmienić mapę: kliknij na zielony przycisk z czarnym krzyżykiem, aby powiększyć; na zielony przycisk z myślnikiem, aby pomniejszyć; na zielone strzałki, aby przejść do map sąsiednich.


METAR-TAF: